sensor_id;sensor_type;location;lat;lon;timestamp;P1;durP1;ratioP1;P2;durP2;ratioP2
42096;SDS011;27754;45.414;11.084;2023-06-14T00:00:48;10.07;;;6.30;;
42096;SDS011;27754;45.414;11.084;2023-06-14T00:03:15;10.70;;;6.28;;
42096;SDS011;27754;45.414;11.084;2023-06-14T00:05:44;11.20;;;6.50;;
42096;SDS011;27754;45.414;11.084;2023-06-14T00:08:12;14.80;;;7.07;;
42096;SDS011;27754;45.414;11.084;2023-06-14T00:10:40;12.82;;;6.75;;
42096;SDS011;27754;45.414;11.084;2023-06-14T00:13:09;12.55;;;6.65;;
42096;SDS011;27754;45.414;11.084;2023-06-14T00:15:36;10.23;;;6.68;;
42096;SDS011;27754;45.414;11.084;2023-06-14T00:18:03;10.25;;;7.10;;
42096;SDS011;27754;45.414;11.084;2023-06-14T00:20:31;8.25;;;7.15;;
42096;SDS011;27754;45.414;11.084;2023-06-14T00:23:00;9.55;;;7.38;;
42096;SDS011;27754;45.414;11.084;2023-06-14T00:25:27;12.35;;;8.88;;
42096;SDS011;27754;45.414;11.084;2023-06-14T00:27:56;10.85;;;8.32;;
42096;SDS011;27754;45.414;11.084;2023-06-14T00:30:24;11.13;;;8.23;;
42096;SDS011;27754;45.414;11.084;2023-06-14T00:32:52;11.18;;;8.57;;
42096;SDS011;27754;45.414;11.084;2023-06-14T00:35:19;10.75;;;8.07;;
42096;SDS011;27754;45.414;11.084;2023-06-14T00:37:46;8.95;;;7.53;;
42096;SDS011;27754;45.414;11.084;2023-06-14T00:40:13;10.70;;;6.50;;
42096;SDS011;27754;45.414;11.084;2023-06-14T00:42:40;9.63;;;6.93;;
42096;SDS011;27754;45.414;11.084;2023-06-14T00:45:09;8.32;;;6.70;;
42096;SDS011;27754;45.414;11.084;2023-06-14T00:47:36;10.48;;;6.22;;
42096;SDS011;27754;45.414;11.084;2023-06-14T00:50:08;7.47;;;5.80;;
42096;SDS011;27754;45.414;11.084;2023-06-14T00:52:36;8.02;;;5.85;;
42096;SDS011;27754;45.414;11.084;2023-06-14T00:55:03;7.85;;;6.13;;
42096;SDS011;27754;45.414;11.084;2023-06-14T00:57:30;8.75;;;6.00;;
42096;SDS011;27754;45.414;11.084;2023-06-14T00:59:57;7.53;;;6.03;;
42096;SDS011;27754;45.414;11.084;2023-06-14T01:02:25;8.23;;;6.18;;
42096;SDS011;27754;45.414;11.084;2023-06-14T01:04:52;10.40;;;6.40;;
42096;SDS011;27754;45.414;11.084;2023-06-14T01:07:23;11.55;;;7.07;;
42096;SDS011;27754;45.414;11.084;2023-06-14T01:13:38;8.80;;;6.80;;
42096;SDS011;27754;45.414;11.084;2023-06-14T01:16:08;12.13;;;7.85;;
42096;SDS011;27754;45.414;11.084;2023-06-14T01:18:36;10.30;;;8.38;;
42096;SDS011;27754;45.414;11.084;2023-06-14T01:21:03;11.95;;;8.85;;
42096;SDS011;27754;45.414;11.084;2023-06-14T01:23:35;14.75;;;9.57;;
42096;SDS011;27754;45.414;11.084;2023-06-14T01:26:02;13.57;;;10.77;;
42096;SDS011;27754;45.414;11.084;2023-06-14T01:28:32;15.73;;;10.88;;
42096;SDS011;27754;45.414;11.084;2023-06-14T01:31:01;13.63;;;9.88;;
42096;SDS011;27754;45.414;11.084;2023-06-14T01:33:32;12.68;;;9.90;;
42096;SDS011;27754;45.414;11.084;2023-06-14T01:36:01;15.93;;;11.00;;
42096;SDS011;27754;45.414;11.084;2023-06-14T01:38:31;13.35;;;10.02;;
42096;SDS011;27754;45.414;11.084;2023-06-14T01:40:59;14.70;;;10.30;;
42096;SDS011;27754;45.414;11.084;2023-06-14T01:43:28;31.00;;;13.27;;
42096;SDS011;27754;45.414;11.084;2023-06-14T01:45:57;16.67;;;11.32;;
42096;SDS011;27754;45.414;11.084;2023-06-14T01:48:26;16.92;;;11.20;;
42096;SDS011;27754;45.414;11.084;2023-06-14T01:50:53;16.65;;;11.48;;
42096;SDS011;27754;45.414;11.084;2023-06-14T01:53:20;14.43;;;11.38;;
42096;SDS011;27754;45.414;11.084;2023-06-14T01:55:47;15.82;;;11.05;;
42096;SDS011;27754;45.414;11.084;2023-06-14T01:58:15;13.27;;;10.82;;
42096;SDS011;27754;45.414;11.084;2023-06-14T02:00:46;14.80;;;11.07;;
42096;SDS011;27754;45.414;11.084;2023-06-14T02:03:14;11.80;;;9.98;;
42096;SDS011;27754;45.414;11.084;2023-06-14T02:05:42;17.30;;;11.35;;
42096;SDS011;27754;45.414;11.084;2023-06-14T02:08:09;13.15;;;10.52;;
42096;SDS011;27754;45.414;11.084;2023-06-14T02:10:36;13.90;;;11.00;;
42096;SDS011;27754;45.414;11.084;2023-06-14T02:13:03;13.40;;;10.10;;
42096;SDS011;27754;45.414;11.084;2023-06-14T02:15:30;13.45;;;9.38;;
42096;SDS011;27754;45.414;11.084;2023-06-14T02:18:02;11.82;;;9.05;;
42096;SDS011;27754;45.414;11.084;2023-06-14T02:20:31;15.18;;;8.25;;
42096;SDS011;27754;45.414;11.084;2023-06-14T02:22:59;11.20;;;7.60;;
42096;SDS011;27754;45.414;11.084;2023-06-14T02:25:26;9.48;;;7.45;;
42096;SDS011;27754;45.414;11.084;2023-06-14T02:27:56;10.15;;;7.43;;
42096;SDS011;27754;45.414;11.084;2023-06-14T02:30:23;12.52;;;7.93;;
42096;SDS011;27754;45.414;11.084;2023-06-14T02:32:50;9.23;;;7.40;;
42096;SDS011;27754;45.414;11.084;2023-06-14T02:35:17;10.30;;;6.93;;
42096;SDS011;27754;45.414;11.084;2023-06-14T02:37:44;9.45;;;6.50;;
42096;SDS011;27754;45.414;11.084;2023-06-14T02:40:11;8.30;;;6.03;;
42096;SDS011;27754;45.414;11.084;2023-06-14T02:42:39;8.90;;;6.70;;
42096;SDS011;27754;45.414;11.084;2023-06-14T02:45:06;7.35;;;6.28;;
42096;SDS011;27754;45.414;11.084;2023-06-14T02:47:34;9.02;;;5.80;;
42096;SDS011;27754;45.414;11.084;2023-06-14T02:50:01;9.02;;;6.65;;
42096;SDS011;27754;45.414;11.084;2023-06-14T02:52:29;7.55;;;6.53;;
42096;SDS011;27754;45.414;11.084;2023-06-14T02:54:56;8.55;;;6.20;;
42096;SDS011;27754;45.414;11.084;2023-06-14T02:57:23;9.10;;;6.25;;
42096;SDS011;27754;45.414;11.084;2023-06-14T02:59:50;9.88;;;6.88;;
42096;SDS011;27754;45.414;11.084;2023-06-14T03:02:18;7.93;;;6.38;;
42096;SDS011;27754;45.414;11.084;2023-06-14T03:04:45;8.88;;;6.78;;
42096;SDS011;27754;45.414;11.084;2023-06-14T03:07:15;7.85;;;6.45;;
42096;SDS011;27754;45.414;11.084;2023-06-14T03:09:48;8.35;;;6.90;;
42096;SDS011;27754;45.414;11.084;2023-06-14T03:12:17;8.13;;;6.43;;
42096;SDS011;27754;45.414;11.084;2023-06-14T03:14:44;9.90;;;6.80;;
42096;SDS011;27754;45.414;11.084;2023-06-14T03:17:16;11.27;;;7.10;;
42096;SDS011;27754;45.414;11.084;2023-06-14T03:19:44;9.45;;;6.85;;
42096;SDS011;27754;45.414;11.084;2023-06-14T03:22:12;8.57;;;6.60;;
42096;SDS011;27754;45.414;11.084;2023-06-14T03:24:39;9.30;;;6.85;;
42096;SDS011;27754;45.414;11.084;2023-06-14T03:27:10;10.50;;;6.57;;
42096;SDS011;27754;45.414;11.084;2023-06-14T03:29:41;8.88;;;6.70;;
42096;SDS011;27754;45.414;11.084;2023-06-14T03:32:09;10.82;;;7.07;;
42096;SDS011;27754;45.414;11.084;2023-06-14T03:34:38;11.35;;;6.85;;
42096;SDS011;27754;45.414;11.084;2023-06-14T03:37:08;12.07;;;8.00;;
42096;SDS011;27754;45.414;11.084;2023-06-14T03:39:35;11.45;;;7.93;;
42096;SDS011;27754;45.414;11.084;2023-06-14T03:42:03;11.32;;;8.10;;
42096;SDS011;27754;45.414;11.084;2023-06-14T03:44:31;12.15;;;8.02;;
42096;SDS011;27754;45.414;11.084;2023-06-14T03:46:59;9.73;;;7.40;;
42096;SDS011;27754;45.414;11.084;2023-06-14T03:49:27;14.32;;;8.65;;
42096;SDS011;27754;45.414;11.084;2023-06-14T03:51:54;16.90;;;8.13;;
42096;SDS011;27754;45.414;11.084;2023-06-14T03:54:23;12.45;;;7.57;;
42096;SDS011;27754;45.414;11.084;2023-06-14T03:56:54;11.73;;;7.82;;
42096;SDS011;27754;45.414;11.084;2023-06-14T03:59:23;13.25;;;6.97;;
42096;SDS011;27754;45.414;11.084;2023-06-14T04:01:50;10.82;;;7.57;;
42096;SDS011;27754;45.414;11.084;2023-06-14T04:04:17;10.55;;;7.30;;
42096;SDS011;27754;45.414;11.084;2023-06-14T04:06:45;13.43;;;6.90;;
42096;SDS011;27754;45.414;11.084;2023-06-14T04:09:14;11.00;;;7.43;;
42096;SDS011;27754;45.414;11.084;2023-06-14T04:11:41;11.02;;;7.45;;
42096;SDS011;27754;45.414;11.084;2023-06-14T04:14:08;10.05;;;6.90;;
42096;SDS011;27754;45.414;11.084;2023-06-14T04:16:37;9.95;;;7.25;;
42096;SDS011;27754;45.414;11.084;2023-06-14T04:19:04;10.82;;;6.85;;
42096;SDS011;27754;45.414;11.084;2023-06-14T04:21:31;9.60;;;6.90;;
42096;SDS011;27754;45.414;11.084;2023-06-14T04:24:02;11.35;;;7.25;;
42096;SDS011;27754;45.414;11.084;2023-06-14T04:26:32;12.45;;;7.30;;
42096;SDS011;27754;45.414;11.084;2023-06-14T04:29:00;10.30;;;7.72;;
42096;SDS011;27754;45.414;11.084;2023-06-14T04:31:31;12.23;;;8.05;;
42096;SDS011;27754;45.414;11.084;2023-06-14T04:34:06;13.38;;;8.60;;
42096;SDS011;27754;45.414;11.084;2023-06-14T04:36:34;13.05;;;7.70;;
42096;SDS011;27754;45.414;11.084;2023-06-14T04:39:04;10.82;;;7.70;;
42096;SDS011;27754;45.414;11.084;2023-06-14T04:41:31;10.13;;;7.50;;
42096;SDS011;27754;45.414;11.084;2023-06-14T04:43:59;11.65;;;7.85;;
42096;SDS011;27754;45.414;11.084;2023-06-14T04:46:32;10.90;;;8.23;;
42096;SDS011;27754;45.414;11.084;2023-06-14T04:48:59;11.95;;;7.88;;
42096;SDS011;27754;45.414;11.084;2023-06-14T04:51:28;12.27;;;7.72;;
42096;SDS011;27754;45.414;11.084;2023-06-14T04:53:57;13.15;;;7.80;;
42096;SDS011;27754;45.414;11.084;2023-06-14T04:56:26;11.05;;;8.30;;
42096;SDS011;27754;45.414;11.084;2023-06-14T04:58:54;16.95;;;6.90;;
42096;SDS011;27754;45.414;11.084;2023-06-14T05:01:23;19.13;;;7.97;;
42096;SDS011;27754;45.414;11.084;2023-06-14T05:03:50;14.63;;;7.40;;
42096;SDS011;27754;45.414;11.084;2023-06-14T05:06:17;15.73;;;7.82;;
42096;SDS011;27754;45.414;11.084;2023-06-14T05:08:44;14.25;;;7.35;;
42096;SDS011;27754;45.414;11.084;2023-06-14T05:11:12;12.23;;;6.70;;
42096;SDS011;27754;45.414;11.084;2023-06-14T05:13:39;14.75;;;7.40;;
42096;SDS011;27754;45.414;11.084;2023-06-14T05:16:09;12.70;;;7.20;;
42096;SDS011;27754;45.414;11.084;2023-06-14T05:18:37;13.15;;;7.68;;
42096;SDS011;27754;45.414;11.084;2023-06-14T05:21:06;15.07;;;8.25;;
42096;SDS011;27754;45.414;11.084;2023-06-14T05:23:33;13.93;;;8.02;;
42096;SDS011;27754;45.414;11.084;2023-06-14T05:26:00;17.10;;;8.57;;
42096;SDS011;27754;45.414;11.084;2023-06-14T05:28:29;14.40;;;7.57;;
42096;SDS011;27754;45.414;11.084;2023-06-14T05:30:57;17.67;;;7.05;;
42096;SDS011;27754;45.414;11.084;2023-06-14T05:33:24;9.35;;;6.65;;
42096;SDS011;27754;45.414;11.084;2023-06-14T05:35:51;7.35;;;5.40;;
42096;SDS011;27754;45.414;11.084;2023-06-14T05:38:18;9.70;;;4.93;;
42096;SDS011;27754;45.414;11.084;2023-06-14T05:40:45;15.38;;;6.03;;
42096;SDS011;27754;45.414;11.084;2023-06-14T05:43:12;9.95;;;5.30;;
42096;SDS011;27754;45.414;11.084;2023-06-14T05:45:39;9.25;;;5.55;;
42096;SDS011;27754;45.414;11.084;2023-06-14T05:48:06;10.18;;;5.85;;
42096;SDS011;27754;45.414;11.084;2023-06-14T05:50:33;7.65;;;5.25;;
42096;SDS011;27754;45.414;11.084;2023-06-14T05:53:00;7.63;;;4.88;;
42096;SDS011;27754;45.414;11.084;2023-06-14T05:55:27;6.38;;;5.22;;
42096;SDS011;27754;45.414;11.084;2023-06-14T05:57:54;7.03;;;5.55;;
42096;SDS011;27754;45.414;11.084;2023-06-14T06:00:21;6.20;;;5.07;;
42096;SDS011;27754;45.414;11.084;2023-06-14T06:02:48;5.80;;;4.70;;
42096;SDS011;27754;45.414;11.084;2023-06-14T06:05:15;11.98;;;5.90;;
42096;SDS011;27754;45.414;11.084;2023-06-14T06:07:43;8.75;;;5.28;;
42096;SDS011;27754;45.414;11.084;2023-06-14T06:10:13;7.68;;;5.78;;
42096;SDS011;27754;45.414;11.084;2023-06-14T06:12:41;8.95;;;5.43;;
42096;SDS011;27754;45.414;11.084;2023-06-14T06:15:09;12.13;;;6.00;;
42096;SDS011;27754;45.414;11.084;2023-06-14T06:17:39;7.95;;;5.10;;
42096;SDS011;27754;45.414;11.084;2023-06-14T06:20:22;7.78;;;5.53;;
42096;SDS011;27754;45.414;11.084;2023-06-14T06:22:55;8.43;;;5.38;;
42096;SDS011;27754;45.414;11.084;2023-06-14T06:25:22;8.25;;;5.00;;
42096;SDS011;27754;45.414;11.084;2023-06-14T06:27:52;6.43;;;4.70;;
42096;SDS011;27754;45.414;11.084;2023-06-14T06:30:20;12.05;;;5.18;;
42096;SDS011;27754;45.414;11.084;2023-06-14T06:32:47;6.78;;;4.95;;
42096;SDS011;27754;45.414;11.084;2023-06-14T06:35:14;10.35;;;4.85;;
42096;SDS011;27754;45.414;11.084;2023-06-14T06:37:42;7.90;;;4.80;;
42096;SDS011;27754;45.414;11.084;2023-06-14T06:40:09;6.05;;;4.35;;
42096;SDS011;27754;45.414;11.084;2023-06-14T06:42:36;6.18;;;4.72;;
42096;SDS011;27754;45.414;11.084;2023-06-14T06:45:04;6.78;;;4.70;;
42096;SDS011;27754;45.414;11.084;2023-06-14T06:47:32;6.72;;;4.68;;
42096;SDS011;27754;45.414;11.084;2023-06-14T06:49:59;7.45;;;4.53;;
42096;SDS011;27754;45.414;11.084;2023-06-14T06:52:26;7.88;;;4.90;;
42096;SDS011;27754;45.414;11.084;2023-06-14T06:54:53;6.68;;;4.10;;
42096;SDS011;27754;45.414;11.084;2023-06-14T06:57:21;14.00;;;5.32;;
42096;SDS011;27754;45.414;11.084;2023-06-14T06:59:51;5.53;;;4.40;;
42096;SDS011;27754;45.414;11.084;2023-06-14T07:02:18;8.25;;;4.88;;
42096;SDS011;27754;45.414;11.084;2023-06-14T07:04:45;12.63;;;5.57;;
42096;SDS011;27754;45.414;11.084;2023-06-14T07:07:12;8.20;;;4.38;;
42096;SDS011;27754;45.414;11.084;2023-06-14T07:09:39;8.80;;;4.80;;
42096;SDS011;27754;45.414;11.084;2023-06-14T07:12:08;10.88;;;4.65;;
42096;SDS011;27754;45.414;11.084;2023-06-14T07:14:37;7.07;;;4.65;;
42096;SDS011;27754;45.414;11.084;2023-06-14T07:17:03;6.00;;;4.88;;
42096;SDS011;27754;45.414;11.084;2023-06-14T07:19:31;7.63;;;4.40;;
42096;SDS011;27754;45.414;11.084;2023-06-14T07:21:59;7.25;;;4.20;;
42096;SDS011;27754;45.414;11.084;2023-06-14T07:24:26;8.02;;;4.47;;
42096;SDS011;27754;45.414;11.084;2023-06-14T07:26:55;6.95;;;4.60;;
42096;SDS011;27754;45.414;11.084;2023-06-14T07:29:22;7.43;;;4.80;;
42096;SDS011;27754;45.414;11.084;2023-06-14T07:31:49;5.45;;;4.53;;
42096;SDS011;27754;45.414;11.084;2023-06-14T07:34:16;7.05;;;4.50;;
42096;SDS011;27754;45.414;11.084;2023-06-14T07:36:43;6.25;;;3.92;;
42096;SDS011;27754;45.414;11.084;2023-06-14T07:39:11;6.93;;;3.78;;
42096;SDS011;27754;45.414;11.084;2023-06-14T07:41:38;5.68;;;4.55;;
42096;SDS011;27754;45.414;11.084;2023-06-14T07:44:05;7.63;;;4.30;;
42096;SDS011;27754;45.414;11.084;2023-06-14T07:46:32;6.32;;;3.85;;
42096;SDS011;27754;45.414;11.084;2023-06-14T07:49:00;6.47;;;4.00;;
42096;SDS011;27754;45.414;11.084;2023-06-14T07:51:28;5.00;;;4.25;;
42096;SDS011;27754;45.414;11.084;2023-06-14T07:53:55;8.50;;;4.43;;
42096;SDS011;27754;45.414;11.084;2023-06-14T07:56:22;7.82;;;4.18;;
42096;SDS011;27754;45.414;11.084;2023-06-14T07:58:49;5.85;;;4.05;;
42096;SDS011;27754;45.414;11.084;2023-06-14T08:01:16;9.07;;;4.57;;
42096;SDS011;27754;45.414;11.084;2023-06-14T08:03:44;6.20;;;4.03;;
42096;SDS011;27754;45.414;11.084;2023-06-14T08:06:11;6.20;;;4.28;;
42096;SDS011;27754;45.414;11.084;2023-06-14T08:08:38;7.70;;;3.92;;
42096;SDS011;27754;45.414;11.084;2023-06-14T08:11:05;7.68;;;4.05;;
42096;SDS011;27754;45.414;11.084;2023-06-14T08:13:33;5.68;;;4.10;;
42096;SDS011;27754;45.414;11.084;2023-06-14T08:16:00;8.93;;;4.10;;
42096;SDS011;27754;45.414;11.084;2023-06-14T08:18:27;6.72;;;3.78;;
42096;SDS011;27754;45.414;11.084;2023-06-14T08:20:56;10.77;;;4.13;;
42096;SDS011;27754;45.414;11.084;2023-06-14T08:23:24;5.63;;;4.05;;
42096;SDS011;27754;45.414;11.084;2023-06-14T08:25:51;8.45;;;4.28;;
42096;SDS011;27754;45.414;11.084;2023-06-14T08:28:18;8.73;;;4.00;;
42096;SDS011;27754;45.414;11.084;2023-06-14T08:30:45;5.85;;;3.95;;
42096;SDS011;27754;45.414;11.084;2023-06-14T08:33:12;7.38;;;4.00;;
42096;SDS011;27754;45.414;11.084;2023-06-14T08:35:43;6.05;;;3.70;;
42096;SDS011;27754;45.414;11.084;2023-06-14T08:38:10;13.57;;;4.55;;
42096;SDS011;27754;45.414;11.084;2023-06-14T08:40:38;9.57;;;4.00;;
42096;SDS011;27754;45.414;11.084;2023-06-14T08:43:08;13.85;;;4.95;;
42096;SDS011;27754;45.414;11.084;2023-06-14T08:45:35;6.75;;;3.97;;
42096;SDS011;27754;45.414;11.084;2023-06-14T08:48:02;6.32;;;4.28;;
42096;SDS011;27754;45.414;11.084;2023-06-14T08:50:30;8.48;;;4.22;;
42096;SDS011;27754;45.414;11.084;2023-06-14T08:53:00;14.15;;;5.18;;
42096;SDS011;27754;45.414;11.084;2023-06-14T08:55:30;13.18;;;4.45;;
42096;SDS011;27754;45.414;11.084;2023-06-14T08:58:02;9.30;;;4.07;;
42096;SDS011;27754;45.414;11.084;2023-06-14T09:00:31;15.43;;;5.22;;
42096;SDS011;27754;45.414;11.084;2023-06-14T09:03:00;9.32;;;5.15;;
42096;SDS011;27754;45.414;11.084;2023-06-14T09:05:27;9.85;;;4.00;;
42096;SDS011;27754;45.414;11.084;2023-06-14T09:07:55;9.05;;;4.88;;
42096;SDS011;27754;45.414;11.084;2023-06-14T09:10:31;8.50;;;5.82;;
42096;SDS011;27754;45.414;11.084;2023-06-14T09:13:04;10.43;;;5.85;;
42096;SDS011;27754;45.414;11.084;2023-06-14T09:15:32;7.68;;;4.43;;
42096;SDS011;27754;45.414;11.084;2023-06-14T09:18:01;11.23;;;4.60;;
42096;SDS011;27754;45.414;11.084;2023-06-14T09:20:30;7.15;;;4.40;;
42096;SDS011;27754;45.414;11.084;2023-06-14T09:22:57;14.35;;;4.97;;
42096;SDS011;27754;45.414;11.084;2023-06-14T09:25:24;7.45;;;4.10;;
42096;SDS011;27754;45.414;11.084;2023-06-14T09:28:08;10.75;;;4.13;;
42096;SDS011;27754;45.414;11.084;2023-06-14T09:30:38;10.23;;;4.15;;
42096;SDS011;27754;45.414;11.084;2023-06-14T09:33:06;7.30;;;4.57;;
42096;SDS011;27754;45.414;11.084;2023-06-14T09:35:33;11.50;;;4.57;;
42096;SDS011;27754;45.414;11.084;2023-06-14T09:38:00;9.80;;;5.13;;
42096;SDS011;27754;45.414;11.084;2023-06-14T09:40:28;9.85;;;4.68;;
42096;SDS011;27754;45.414;11.084;2023-06-14T09:42:54;9.40;;;5.18;;
42096;SDS011;27754;45.414;11.084;2023-06-14T09:45:25;9.57;;;4.88;;
42096;SDS011;27754;45.414;11.084;2023-06-14T09:47:56;11.05;;;5.82;;
42096;SDS011;27754;45.414;11.084;2023-06-14T09:50:33;13.65;;;5.32;;
42096;SDS011;27754;45.414;11.084;2023-06-14T09:53:06;6.50;;;4.57;;
42096;SDS011;27754;45.414;11.084;2023-06-14T09:55:34;10.40;;;5.00;;
42096;SDS011;27754;45.414;11.084;2023-06-14T09:58:04;10.82;;;4.20;;
42096;SDS011;27754;45.414;11.084;2023-06-14T10:00:33;6.40;;;3.63;;
42096;SDS011;27754;45.414;11.084;2023-06-14T10:03:24;7.22;;;3.08;;
42096;SDS011;27754;45.414;11.084;2023-06-14T10:06:00;5.47;;;3.42;;
42096;SDS011;27754;45.414;11.084;2023-06-14T10:08:30;7.05;;;3.30;;
42096;SDS011;27754;45.414;11.084;2023-06-14T10:10:59;6.07;;;4.10;;
42096;SDS011;27754;45.414;11.084;2023-06-14T10:13:26;7.22;;;3.47;;
42096;SDS011;27754;45.414;11.084;2023-06-14T10:18:48;4.68;;;3.67;;
42096;SDS011;27754;45.414;11.084;2023-06-14T10:21:36;5.10;;;3.47;;
42096;SDS011;27754;45.414;11.084;2023-06-14T10:24:30;8.02;;;3.88;;
42096;SDS011;27754;45.414;11.084;2023-06-14T10:26:59;8.55;;;3.28;;
42096;SDS011;27754;45.414;11.084;2023-06-14T10:29:27;5.82;;;3.35;;
42096;SDS011;27754;45.414;11.084;2023-06-14T10:31:59;5.60;;;3.38;;
42096;SDS011;27754;45.414;11.084;2023-06-14T10:34:27;4.97;;;3.13;;
42096;SDS011;27754;45.414;11.084;2023-06-14T10:37:03;5.45;;;3.42;;
42096;SDS011;27754;45.414;11.084;2023-06-14T10:39:39;5.32;;;3.50;;
42096;SDS011;27754;45.414;11.084;2023-06-14T10:42:12;4.88;;;3.63;;
42096;SDS011;27754;45.414;11.084;2023-06-14T10:44:49;4.55;;;3.42;;
42096;SDS011;27754;45.414;11.084;2023-06-14T10:47:25;6.25;;;3.65;;
42096;SDS011;27754;45.414;11.084;2023-06-14T10:49:58;4.30;;;3.58;;
42096;SDS011;27754;45.414;11.084;2023-06-14T10:52:41;8.10;;;3.88;;
42096;SDS011;27754;45.414;11.084;2023-06-14T10:55:16;4.53;;;3.75;;
42096;SDS011;27754;45.414;11.084;2023-06-14T10:57:46;4.93;;;4.00;;
42096;SDS011;27754;45.414;11.084;2023-06-14T11:00:19;6.63;;;3.95;;
42096;SDS011;27754;45.414;11.084;2023-06-14T11:05:48;6.82;;;3.78;;
42096;SDS011;27754;45.414;11.084;2023-06-14T11:10:59;7.35;;;3.70;;
42096;SDS011;27754;45.414;11.084;2023-06-14T11:13:26;8.02;;;3.72;;
42096;SDS011;27754;45.414;11.084;2023-06-14T11:15:57;7.00;;;4.30;;
42096;SDS011;27754;45.414;11.084;2023-06-14T11:18:25;5.60;;;3.70;;
42096;SDS011;27754;45.414;11.084;2023-06-14T11:20:54;4.93;;;3.08;;
42096;SDS011;27754;45.414;11.084;2023-06-14T11:23:21;7.35;;;3.65;;
42096;SDS011;27754;45.414;11.084;2023-06-14T11:25:52;6.60;;;4.15;;
42096;SDS011;27754;45.414;11.084;2023-06-14T11:28:19;6.43;;;3.63;;
42096;SDS011;27754;45.414;11.084;2023-06-14T11:31:00;7.25;;;3.78;;
42096;SDS011;27754;45.414;11.084;2023-06-14T11:33:28;5.57;;;3.75;;
42096;SDS011;27754;45.414;11.084;2023-06-14T11:35:55;6.07;;;3.70;;
42096;SDS011;27754;45.414;11.084;2023-06-14T11:38:22;5.55;;;3.47;;
42096;SDS011;27754;45.414;11.084;2023-06-14T11:40:49;6.40;;;3.67;;
42096;SDS011;27754;45.414;11.084;2023-06-14T11:43:16;5.20;;;3.35;;
42096;SDS011;27754;45.414;11.084;2023-06-14T11:45:43;4.70;;;3.45;;
42096;SDS011;27754;45.414;11.084;2023-06-14T11:48:36;9.60;;;3.55;;
42096;SDS011;27754;45.414;11.084;2023-06-14T11:51:04;9.40;;;3.50;;
42096;SDS011;27754;45.414;11.084;2023-06-14T11:53:31;5.50;;;3.85;;
42096;SDS011;27754;45.414;11.084;2023-06-14T11:55:59;6.03;;;3.50;;
42096;SDS011;27754;45.414;11.084;2023-06-14T11:58:28;10.27;;;4.10;;
42096;SDS011;27754;45.414;11.084;2023-06-14T12:00:56;5.88;;;3.30;;
42096;SDS011;27754;45.414;11.084;2023-06-14T12:03:24;10.70;;;3.72;;
42096;SDS011;27754;45.414;11.084;2023-06-14T12:06:05;9.50;;;3.38;;
42096;SDS011;27754;45.414;11.084;2023-06-14T12:08:37;8.20;;;3.95;;
42096;SDS011;27754;45.414;11.084;2023-06-14T12:11:07;7.55;;;4.55;;
42096;SDS011;27754;45.414;11.084;2023-06-14T12:13:40;8.45;;;4.00;;
42096;SDS011;27754;45.414;11.084;2023-06-14T12:16:08;8.32;;;4.22;;
42096;SDS011;27754;45.414;11.084;2023-06-14T12:18:37;6.30;;;3.92;;
42096;SDS011;27754;45.414;11.084;2023-06-14T12:21:06;8.20;;;4.00;;
42096;SDS011;27754;45.414;11.084;2023-06-14T12:23:46;10.05;;;4.65;;
42096;SDS011;27754;45.414;11.084;2023-06-14T12:26:16;11.85;;;4.60;;
42096;SDS011;27754;45.414;11.084;2023-06-14T12:28:45;13.68;;;5.63;;
42096;SDS011;27754;45.414;11.084;2023-06-14T12:31:14;11.52;;;5.90;;
42096;SDS011;27754;45.414;11.084;2023-06-14T12:33:42;13.60;;;5.95;;
42096;SDS011;27754;45.414;11.084;2023-06-14T12:36:12;9.00;;;4.75;;
42096;SDS011;27754;45.414;11.084;2023-06-14T12:38:39;8.15;;;4.47;;
42096;SDS011;27754;45.414;11.084;2023-06-14T12:41:06;5.68;;;3.75;;
42096;SDS011;27754;45.414;11.084;2023-06-14T12:43:34;6.03;;;3.53;;
42096;SDS011;27754;45.414;11.084;2023-06-14T12:46:01;6.03;;;3.63;;
42096;SDS011;27754;45.414;11.084;2023-06-14T12:48:28;6.97;;;3.70;;
42096;SDS011;27754;45.414;11.084;2023-06-14T12:50:57;8.68;;;4.15;;
42096;SDS011;27754;45.414;11.084;2023-06-14T12:53:24;6.55;;;3.67;;
42096;SDS011;27754;45.414;11.084;2023-06-14T12:55:51;12.68;;;5.93;;
42096;SDS011;27754;45.414;11.084;2023-06-14T12:58:18;8.25;;;3.78;;
42096;SDS011;27754;45.414;11.084;2023-06-14T13:00:46;8.02;;;3.88;;
42096;SDS011;27754;45.414;11.084;2023-06-14T13:03:14;7.60;;;3.67;;
42096;SDS011;27754;45.414;11.084;2023-06-14T13:05:41;4.88;;;4.13;;
42096;SDS011;27754;45.414;11.084;2023-06-14T13:08:09;5.55;;;3.70;;
42096;SDS011;27754;45.414;11.084;2023-06-14T13:10:36;5.63;;;3.85;;
42096;SDS011;27754;45.414;11.084;2023-06-14T13:13:03;7.13;;;4.03;;
42096;SDS011;27754;45.414;11.084;2023-06-14T13:15:30;7.70;;;3.55;;
42096;SDS011;27754;45.414;11.084;2023-06-14T13:17:57;7.72;;;3.85;;
42096;SDS011;27754;45.414;11.084;2023-06-14T13:20:24;7.82;;;4.05;;
42096;SDS011;27754;45.414;11.084;2023-06-14T13:22:51;8.93;;;3.92;;
42096;SDS011;27754;45.414;11.084;2023-06-14T13:25:18;6.43;;;3.75;;
42096;SDS011;27754;45.414;11.084;2023-06-14T13:27:45;6.63;;;3.90;;
42096;SDS011;27754;45.414;11.084;2023-06-14T13:30:12;5.72;;;3.55;;
42096;SDS011;27754;45.414;11.084;2023-06-14T13:32:40;6.60;;;3.40;;
42096;SDS011;27754;45.414;11.084;2023-06-14T13:35:07;6.78;;;3.42;;
42096;SDS011;27754;45.414;11.084;2023-06-14T13:37:35;9.80;;;3.90;;
42096;SDS011;27754;45.414;11.084;2023-06-14T13:40:01;15.70;;;4.47;;
42096;SDS011;27754;45.414;11.084;2023-06-14T13:42:29;8.45;;;3.88;;
42096;SDS011;27754;45.414;11.084;2023-06-14T13:44:58;6.18;;;3.65;;
42096;SDS011;27754;45.414;11.084;2023-06-14T13:47:25;6.20;;;3.50;;
42096;SDS011;27754;45.414;11.084;2023-06-14T13:49:52;9.38;;;4.28;;
42096;SDS011;27754;45.414;11.084;2023-06-14T13:52:19;7.95;;;3.63;;
42096;SDS011;27754;45.414;11.084;2023-06-14T13:54:47;12.15;;;3.85;;
42096;SDS011;27754;45.414;11.084;2023-06-14T13:57:15;7.80;;;4.13;;
42096;SDS011;27754;45.414;11.084;2023-06-14T13:59:43;20.08;;;4.63;;
42096;SDS011;27754;45.414;11.084;2023-06-14T14:02:11;4.78;;;3.90;;
42096;SDS011;27754;45.414;11.084;2023-06-14T14:04:38;7.90;;;4.07;;
42096;SDS011;27754;45.414;11.084;2023-06-14T14:07:07;8.63;;;4.13;;
42096;SDS011;27754;45.414;11.084;2023-06-14T14:09:34;7.72;;;3.85;;
42096;SDS011;27754;45.414;11.084;2023-06-14T14:12:02;6.22;;;3.28;;
42096;SDS011;27754;45.414;11.084;2023-06-14T14:14:30;6.93;;;3.65;;
42096;SDS011;27754;45.414;11.084;2023-06-14T14:16:58;6.55;;;3.83;;
42096;SDS011;27754;45.414;11.084;2023-06-14T14:19:25;6.53;;;3.60;;
42096;SDS011;27754;45.414;11.084;2023-06-14T14:21:52;10.65;;;3.90;;
42096;SDS011;27754;45.414;11.084;2023-06-14T14:24:20;8.23;;;4.55;;
42096;SDS011;27754;45.414;11.084;2023-06-14T14:26:47;9.93;;;5.07;;
42096;SDS011;27754;45.414;11.084;2023-06-14T14:29:16;5.70;;;4.03;;
42096;SDS011;27754;45.414;11.084;2023-06-14T14:31:43;7.97;;;4.18;;
42096;SDS011;27754;45.414;11.084;2023-06-14T14:34:10;6.15;;;3.33;;
42096;SDS011;27754;45.414;11.084;2023-06-14T14:36:37;5.90;;;3.60;;
42096;SDS011;27754;45.414;11.084;2023-06-14T14:39:08;8.15;;;3.40;;
42096;SDS011;27754;45.414;11.084;2023-06-14T14:41:36;9.20;;;3.88;;
42096;SDS011;27754;45.414;11.084;2023-06-14T14:44:07;11.45;;;3.80;;
42096;SDS011;27754;45.414;11.084;2023-06-14T14:46:34;13.93;;;4.03;;
42096;SDS011;27754;45.414;11.084;2023-06-14T14:49:01;7.25;;;3.67;;